This is the latest recevied weather packets stored in our database for station/object OH2HCY. If no packets are shown the sender has not sent any weather packets the latest 10 day(s).
| Time | Temp. | Humidity | Pressure | Rain* | Wind** | Luminosity | Snow |
|---|---|---|---|---|---|---|---|
| 1777692050 | 5.56° C | 79% | 1010.8 hPa | - | - | - | - |
| 1777691545 | 5.56° C | 80% | 1010.8 hPa | - | - | - | - |
| 1777691010 | 5° C | 79% | 1011 hPa | - | - | - | - |
| 1777690500 | 5.56° C | 79% | 1011 hPa | - | - | - | - |
| 1777689925 | 5.56° C | 79% | 1011.1 hPa | - | - | - | - |
| 1777689365 | 5.56° C | 78% | 1011.2 hPa | - | - | - | - |
| 1777688825 | 5.56° C | 79% | 1011.3 hPa | - | - | - | - |
| 1777688250 | 5° C | 80% | 1011.7 hPa | - | - | - | - |
| 1777687705 | 5.56° C | 78% | 1011.6 hPa | - | - | - | - |
| 1777687186 | 5.56° C | 77% | 1011.6 hPa | - | - | - | - |
| 1777686650 | 5.56° C | 78% | 1011.7 hPa | - | - | - | - |
| 1777686130 | 5.56° C | 76% | 1011.7 hPa | - | - | - | - |
| 1777685585 | 6.11° C | 75% | 1011.4 hPa | - | - | - | - |
| 1777685080 | 6.11° C | 76% | 1011.5 hPa | - | - | - | - |
| 1777684555 | 6.11° C | 76% | 1011.6 hPa | - | - | - | - |
| 1777683980 | 6.11° C | 75% | 1011.8 hPa | - | - | - | - |
| 1777683443 | 6.67° C | 74% | 1011.8 hPa | - | - | - | - |
| 1777682915 | 6.67° C | 73% | 1011.6 hPa | - | - | - | - |
| 1777682365 | 6.67° C | 73% | 1011.6 hPa | - | - | - | - |
| 1777681840 | 6.67° C | 73% | 1011.7 hPa | - | - | - | - |
| 1777681290 | 6.67° C | 72% | 1011.8 hPa | - | - | - | - |
| 1777680740 | 7.22° C | 72% | 1011.8 hPa | - | - | - | - |
| 1777680185 | 7.22° C | 71% | 1011.8 hPa | - | - | - | - |
| 1777679650 | 7.22° C | 71% | 1011.9 hPa | - | - | - | - |
| 1777679130 | 7.78° C | 70% | 1011.9 hPa | - | - | - | - |
* Rain since midnight (hover to see other rain measurements)
** Current wind speed in m/s (hover to see current wind gust speed)